createdAt,value
2023-01-27T00:00:55.062Z,32.00
2023-01-27T00:03:23.179Z,31.50
2023-01-27T00:05:50.598Z,28.80
2023-01-27T00:08:19.357Z,29.00
2023-01-27T00:11:07.567Z,27.30
2023-01-27T00:13:34.762Z,30.40
2023-01-27T00:16:01.800Z,26.00
2023-01-27T00:18:29.201Z,26.70
2023-01-27T00:21:15.279Z,26.60
2023-01-27T00:24:00.580Z,27.00
2023-01-27T00:26:28.035Z,27.80
2023-01-27T00:28:55.310Z,26.40
2023-01-27T00:31:41.954Z,25.80
2023-01-27T00:34:08.810Z,28.80
2023-01-27T00:36:41.444Z,28.70
2023-01-27T00:39:11.296Z,27.10
2023-01-27T00:41:39.820Z,24.10
2023-01-27T00:44:12.167Z,27.90
2023-01-27T00:46:41.651Z,26.20
2023-01-27T00:49:10.714Z,23.90
2023-01-27T00:51:38.701Z,23.90
2023-01-27T00:54:06.024Z,23.60
2023-01-27T00:56:33.330Z,24.30
2023-01-27T00:59:00.841Z,22.20
2023-01-27T01:01:30.273Z,23.70
2023-01-27T01:04:00.443Z,22.70
2023-01-27T01:06:27.910Z,24.70
2023-01-27T01:08:57.994Z,25.30
2023-01-27T01:11:25.968Z,25.40
2023-01-27T01:13:55.911Z,25.10
2023-01-27T01:16:24.882Z,24.70
2023-01-27T01:18:52.889Z,27.40
2023-01-27T01:21:21.131Z,23.80
2023-01-27T01:23:50.372Z,23.50
2023-01-27T01:26:18.330Z,22.90
2023-01-27T01:28:46.597Z,21.00
2023-01-27T01:31:17.212Z,21.50
2023-01-27T01:33:45.607Z,22.60
2023-01-27T01:36:16.015Z,19.20
2023-01-27T01:38:43.105Z,15.40
2023-01-27T01:41:15.748Z,19.00
2023-01-27T01:43:43.400Z,18.50
2023-01-27T01:46:15.871Z,16.00
2023-01-27T01:48:48.294Z,12.90
2023-01-27T01:51:33.648Z,14.30
2023-01-27T01:54:08.056Z,12.20
2023-01-27T01:56:56.942Z,11.30
2023-01-27T01:59:28.233Z,12.00
2023-01-27T02:02:00.290Z,12.70
2023-01-27T02:04:34.011Z,14.10
2023-01-27T02:07:22.139Z,13.20
2023-01-27T02:09:53.853Z,15.20
2023-01-27T02:12:20.825Z,16.80
2023-01-27T02:14:48.154Z,14.90
2023-01-27T02:17:15.182Z,15.10
2023-01-27T02:20:02.812Z,15.70
2023-01-27T02:23:01.168Z,16.80
2023-01-27T02:25:33.684Z,14.80
2023-01-27T02:28:02.736Z,13.10
2023-01-27T02:30:30.201Z,14.40
2023-01-27T02:32:58.004Z,17.60
2023-01-27T02:35:49.238Z,15.80
2023-01-27T02:38:18.407Z,18.60
2023-01-27T02:40:49.639Z,19.90
2023-01-27T02:43:18.749Z,20.30
2023-01-27T02:45:47.132Z,19.80
2023-01-27T02:48:14.385Z,17.40
2023-01-27T02:50:43.194Z,16.20
2023-01-27T02:53:11.321Z,14.20
2023-01-27T02:55:38.682Z,16.40
2023-01-27T02:58:05.822Z,15.10
2023-01-27T03:00:43.868Z,15.00
2023-01-27T03:03:12.504Z,17.80
2023-01-27T03:05:41.195Z,23.80
2023-01-27T03:08:09.220Z,24.70
2023-01-27T03:10:36.402Z,20.90
2023-01-27T03:13:03.988Z,21.30
2023-01-27T03:15:50.106Z,21.00
2023-01-27T03:18:17.535Z,21.40
2023-01-27T03:20:46.827Z,20.60
2023-01-27T03:23:16.125Z,20.90
2023-01-27T03:25:47.715Z,19.00
2023-01-27T03:28:15.193Z,18.10
2023-01-27T03:31:09.475Z,18.50
2023-01-27T03:33:47.124Z,19.30
2023-01-27T03:36:45.954Z,17.60
2023-01-27T03:39:31.706Z,17.60
2023-01-27T03:42:17.777Z,17.70
2023-01-27T03:45:03.482Z,17.50
2023-01-27T03:47:30.444Z,16.20
2023-01-27T03:49:57.242Z,19.20
2023-01-27T03:52:24.566Z,27.70
2023-01-27T03:54:51.468Z,32.70
2023-01-27T03:57:19.225Z,31.00
2023-01-27T03:59:46.045Z,24.30
2023-01-27T04:02:31.325Z,23.50
2023-01-27T04:05:16.608Z,21.60
2023-01-27T04:07:43.659Z,19.40
2023-01-27T04:10:11.552Z,17.50
2023-01-27T04:12:38.440Z,17.10
2023-01-27T04:15:06.167Z,18.10
2023-01-27T04:17:38.289Z,20.00
2023-01-27T04:20:05.588Z,19.30
2023-01-27T04:22:32.619Z,18.90
2023-01-27T04:25:05.954Z,19.30
2023-01-27T04:27:32.994Z,16.40
2023-01-27T04:29:59.916Z,25.70
2023-01-27T04:32:26.976Z,17.70
2023-01-27T04:34:54.140Z,18.10
2023-01-27T04:37:21.137Z,16.30
2023-01-27T04:39:49.502Z,18.10
2023-01-27T04:42:16.453Z,21.10
2023-01-27T04:44:43.302Z,20.70
2023-01-27T04:47:11.299Z,18.90
2023-01-27T04:49:38.676Z,18.90
2023-01-27T04:52:05.989Z,18.50
2023-01-27T04:54:32.863Z,17.80
2023-01-27T04:57:05.136Z,17.90
2023-01-27T04:59:32.128Z,20.00
2023-01-27T05:01:59.107Z,18.50
2023-01-27T05:04:26.613Z,19.00
2023-01-27T05:06:54.144Z,19.40
2023-01-27T05:09:21.716Z,18.50
2023-01-27T05:11:48.686Z,18.60
2023-01-27T05:14:15.585Z,18.70
2023-01-27T05:16:42.848Z,17.50
2023-01-27T05:19:09.770Z,17.40
2023-01-27T05:21:37.227Z,16.00
2023-01-27T05:24:04.351Z,17.80
2023-01-27T05:26:31.757Z,19.30
2023-01-27T05:28:59.646Z,19.50
2023-01-27T05:31:30.883Z,18.80
2023-01-27T05:33:59.844Z,18.20
2023-01-27T05:36:27.888Z,21.40
2023-01-27T05:38:56.037Z,19.10
2023-01-27T05:41:23.022Z,18.00
2023-01-27T05:43:55.249Z,18.50
2023-01-27T05:46:28.583Z,18.60
2023-01-27T05:49:00.657Z,16.00
2023-01-27T05:53:59.297Z,18.30
2023-01-27T05:56:26.373Z,18.30
2023-01-27T05:58:56.842Z,19.90
2023-01-27T06:01:27.626Z,20.00
2023-01-27T06:03:54.565Z,20.20
2023-01-27T06:06:24.441Z,19.60
2023-01-27T06:08:52.154Z,18.10
2023-01-27T06:11:20.368Z,20.40
2023-01-27T06:13:50.799Z,18.60
2023-01-27T06:16:19.713Z,21.40
2023-01-27T06:18:48.230Z,23.10
2023-01-27T06:21:19.888Z,25.80
2023-01-27T06:23:46.939Z,25.80
2023-01-27T06:26:16.326Z,28.10
2023-01-27T06:28:43.487Z,19.90
2023-01-27T06:31:16.867Z,19.90
2023-01-27T06:33:44.355Z,21.10
2023-01-27T06:36:15.845Z,18.10
2023-01-27T06:38:43.316Z,18.10
2023-01-27T06:41:10.748Z,16.00
2023-01-27T06:43:41.484Z,15.40
2023-01-27T06:46:08.630Z,18.00
2023-01-27T06:48:37.293Z,17.40
2023-01-27T06:51:04.772Z,13.90
2023-01-27T06:53:36.762Z,15.70
2023-01-27T06:56:04.836Z,14.30
2023-01-27T06:58:32.557Z,14.50
2023-01-27T07:00:59.731Z,16.60
2023-01-27T07:03:26.759Z,14.70
2023-01-27T07:05:53.768Z,15.80
2023-01-27T07:08:20.704Z,14.30
2023-01-27T07:10:47.695Z,15.50
2023-01-27T07:13:15.347Z,14.10
2023-01-27T07:15:42.429Z,14.30
2023-01-27T07:18:12.733Z,14.70
2023-01-27T07:20:41.801Z,16.30
2023-01-27T07:23:09.109Z,13.60
2023-01-27T07:25:36.048Z,13.30
2023-01-27T07:28:03.528Z,15.00
2023-01-27T07:30:33.477Z,16.00
2023-01-27T07:33:09.767Z,16.60
2023-01-27T07:35:38.765Z,13.50
2023-01-27T07:38:06.612Z,17.60
2023-01-27T07:40:36.121Z,14.70
2023-01-27T07:43:03.629Z,15.00
2023-01-27T07:45:30.699Z,16.80
2023-01-27T07:48:02.268Z,17.90
2023-01-27T07:50:29.831Z,16.70
2023-01-27T07:53:01.749Z,13.20
2023-01-27T07:55:30.011Z,15.40
2023-01-27T07:57:57.685Z,15.70
2023-01-27T08:00:25.198Z,15.10
2023-01-27T08:02:53.885Z,18.60
2023-01-27T08:05:22.408Z,14.40
2023-01-27T08:07:50.176Z,15.20
2023-01-27T08:10:18.330Z,14.50
2023-01-27T08:12:46.046Z,17.00
2023-01-27T08:15:13.701Z,13.70
2023-01-27T08:17:42.484Z,15.50
2023-01-27T08:20:11.014Z,15.80
2023-01-27T08:22:38.405Z,17.90
2023-01-27T08:25:06.631Z,18.30
2023-01-27T08:27:33.752Z,16.60
2023-01-27T08:30:00.672Z,18.80
2023-01-27T08:32:28.249Z,15.60
2023-01-27T08:34:55.522Z,17.20
2023-01-27T08:37:25.058Z,17.60
2023-01-27T08:39:52.244Z,18.30
2023-01-27T08:42:19.498Z,16.60
2023-01-27T08:44:46.665Z,16.90
2023-01-27T08:47:17.548Z,17.10
2023-01-27T08:49:45.620Z,18.40
2023-01-27T08:52:13.015Z,18.00
2023-01-27T08:54:39.996Z,17.40
2023-01-27T08:57:06.985Z,20.60
2023-01-27T08:59:34.049Z,20.10
2023-01-27T09:02:01.050Z,16.20
2023-01-27T09:04:29.593Z,13.70
2023-01-27T09:06:56.719Z,14.70
2023-01-27T09:09:23.922Z,12.80
2023-01-27T09:11:51.400Z,16.20
2023-01-27T09:14:19.725Z,12.70
